Time;durP1;ratioP1;P1;durP2;ratioP2;P2;SDS_P1;SDS_P2;PMS_P1;PMS_P2;Temp;Humidity;BMP_temperature;BMP_pressure;BME280_temperature;BME280_humidity;BME280_pressure;Samples;Min_cycle;Max_cycle;Signal;HPM_P1;HPM_P2
2023/09/17 00:00:53;;;;;;;3.27;3.00;;;23.30;74.00;;;;;;5008316;28;20427;-49
2023/09/17 00:03:40;;;;;;;4.37;3.53;;;23.30;73.80;;;;;;4988599;28;20569;-51
2023/09/17 00:06:29;;;;;;;3.03;2.77;;;23.30;73.90;;;;;;4991012;28;20468;-50
2023/09/17 00:09:17;;;;;;;4.93;3.70;;;23.30;74.00;;;;;;5008880;28;20463;-50
2023/09/17 00:12:05;;;;;;;3.90;3.50;;;23.30;74.00;;;;;;5001285;28;20491;-50
2023/09/17 00:14:52;;;;;;;5.40;3.10;;;23.30;74.00;;;;;;5007051;28;20463;-50
2023/09/17 00:17:39;;;;;;;4.03;3.43;;;23.30;74.30;;;;;;5007350;28;20464;-50
2023/09/17 00:20:26;;;;;;;3.13;2.80;;;23.30;74.30;;;;;;5006904;28;20826;-51
2023/09/17 00:23:13;;;;;;;3.07;2.50;;;23.30;74.20;;;;;;5004771;28;20837;-51
2023/09/17 00:26:00;;;;;;;2.97;2.67;;;23.30;74.10;;;;;;5006711;28;20432;-51
2023/09/17 00:28:47;;;;;;;2.83;2.50;;;23.30;74.20;;;;;;5001508;28;20451;-49
2023/09/17 00:31:35;;;;;;;3.50;2.97;;;23.30;74.20;;;;;;5003617;28;20511;-51
2023/09/17 00:34:22;;;;;;;3.37;3.07;;;23.30;74.20;;;;;;5003452;28;20483;-51
2023/09/17 00:37:10;;;;;;;2.93;2.67;;;23.30;74.40;;;;;;5003074;28;21120;-51
2023/09/17 00:40:00;;;;;;;3.57;2.73;;;23.30;74.40;;;;;;4997795;28;20423;-51
2023/09/17 00:42:47;;;;;;;4.77;2.87;;;23.30;74.60;;;;;;5005864;28;20475;-51
2023/09/17 00:45:33;;;;;;;4.50;2.50;;;23.30;74.60;;;;;;5004359;28;20448;-51
2023/09/17 00:48:20;;;;;;;3.00;2.80;;;23.30;74.60;;;;;;5012247;28;20464;-50
2023/09/17 00:51:07;;;;;;;3.40;2.80;;;23.30;74.60;;;;;;4996906;28;20531;-50
2023/09/17 00:53:56;;;;;;;2.47;2.27;;;23.30;74.50;;;;;;4991161;28;20468;-50
2023/09/17 00:56:44;;;;;;;3.83;2.53;;;23.30;74.70;;;;;;4991454;28;21017;-50
2023/09/17 00:59:31;;;;;;;2.93;2.70;;;23.30;74.70;;;;;;4982700;28;20886;-51
2023/09/17 01:02:21;;;;;;;2.63;2.43;;;23.30;74.60;;;;;;4989385;28;21001;-51
2023/09/17 01:05:08;;;;;;;2.80;2.60;;;23.30;74.90;;;;;;4972415;28;20450;-49
2023/09/17 01:07:55;;;;;;;3.30;2.47;;;23.30;74.70;;;;;;4990836;28;21195;-52
2023/09/17 01:10:43;;;;;;;3.50;2.80;;;23.30;74.80;;;;;;4988349;28;20469;-51
2023/09/17 01:13:34;;;;;;;2.90;2.37;;;23.30;74.90;;;;;;4985219;28;20477;-50
2023/09/17 01:16:23;;;;;;;3.37;2.90;;;23.30;74.80;;;;;;5002611;28;20456;-51
2023/09/17 01:19:17;;;;;;;2.67;2.47;;;23.30;74.80;;;;;;4979366;28;20590;-51
2023/09/17 01:22:08;;;;;;;3.20;2.90;;;23.30;74.80;;;;;;5001797;28;20463;-51
2023/09/17 01:25:05;;;;;;;2.77;2.53;;;23.30;75.90;;;;;;4999312;28;20437;-51
2023/09/17 01:27:53;;;;;;;3.17;2.87;;;23.30;74.60;;;;;;4995574;28;20519;-51
2023/09/17 01:30:41;;;;;;;3.93;3.10;;;23.30;74.60;;;;;;4988312;28;20986;-51
2023/09/17 01:33:29;;;;;;;3.57;2.63;;;23.20;74.50;;;;;;4993528;28;20563;-51
2023/09/17 01:36:25;;;;;;;3.10;2.80;;;23.30;74.90;;;;;;5002469;28;21020;-51
2023/09/17 01:39:15;;;;;;;2.80;2.60;;;23.20;74.70;;;;;;4988590;28;20434;-50
2023/09/17 01:42:05;;;;;;;2.50;2.23;;;23.30;75.00;;;;;;4990891;28;20472;-50
2023/09/17 01:44:55;;;;;;;4.40;2.50;;;23.30;74.80;;;;;;4987667;28;20801;-50
2023/09/17 01:47:43;;;;;;;2.93;2.70;;;23.30;74.90;;;;;;4988966;28;20480;-51
2023/09/17 01:50:30;;;;;;;3.03;2.70;;;23.20;75.00;;;;;;4988502;28;20449;-51
2023/09/17 01:53:17;;;;;;;2.77;2.50;;;23.20;74.90;;;;;;5000253;28;20933;-50
2023/09/17 01:56:04;;;;;;;3.27;3.00;;;23.20;75.00;;;;;;5008762;28;20421;-51
2023/09/17 01:58:51;;;;;;;2.87;2.60;;;23.20;74.90;;;;;;4999247;28;20572;-51
2023/09/17 02:01:39;;;;;;;3.50;3.20;;;23.20;74.90;;;;;;4995505;28;20834;-50
2023/09/17 02:04:26;;;;;;;3.37;3.00;;;23.20;74.80;;;;;;5001614;28;20497;-50
2023/09/17 02:07:13;;;;;;;5.23;2.70;;;23.20;75.10;;;;;;4992171;28;20557;-50
2023/09/17 02:10:00;;;;;;;3.70;2.80;;;23.30;75.20;;;;;;4990933;28;20457;-51
2023/09/17 02:12:47;;;;;;;4.60;2.90;;;23.20;75.00;;;;;;4989977;28;21006;-51
2023/09/17 02:15:34;;;;;;;4.07;3.00;;;23.20;75.20;;;;;;4990543;28;20465;-50
2023/09/17 02:18:22;;;;;;;3.83;2.70;;;23.20;75.20;;;;;;4989128;28;20508;-51
2023/09/17 02:21:09;;;;;;;2.50;2.30;;;23.20;75.10;;;;;;4989397;28;20484;-51
2023/09/17 02:23:56;;;;;;;5.70;2.73;;;23.30;75.10;;;;;;5003782;28;20444;-51
2023/09/17 02:26:44;;;;;;;2.83;2.30;;;23.20;75.10;;;;;;4999485;28;20471;-49
2023/09/17 02:29:30;;;;;;;3.73;3.27;;;23.20;75.10;;;;;;4996066;28;20811;-51
2023/09/17 02:32:19;;;;;;;2.70;2.50;;;23.20;75.20;;;;;;4994730;28;20548;-51
2023/09/17 02:35:08;;;;;;;3.07;2.30;;;23.20;75.20;;;;;;4980595;28;20516;-51
2023/09/17 02:37:55;;;;;;;2.40;2.20;;;23.20;75.10;;;;;;4990199;28;20468;-50
2023/09/17 02:40:43;;;;;;;5.03;2.37;;;23.20;75.00;;;;;;5009839;28;20444;-51
2023/09/17 02:43:30;;;;;;;2.63;2.43;;;23.20;74.80;;;;;;5000176;28;20876;-50
2023/09/17 02:46:18;;;;;;;3.40;3.10;;;23.20;75.00;;;;;;4994194;28;20833;-50
2023/09/17 02:49:06;;;;;;;3.60;2.70;;;23.20;74.70;;;;;;5000461;28;20448;-50
2023/09/17 02:51:54;;;;;;;3.40;3.10;;;23.20;73.90;;;;;;5000761;28;20476;-50
2023/09/17 02:54:41;;;;;;;3.67;3.30;;;23.20;75.20;;;;;;5010078;28;21054;-51
2023/09/17 02:57:27;;;;;;;3.13;2.93;;;23.20;75.20;;;;;;5001415;28;20464;-51
2023/09/17 03:00:17;;;;;;;3.20;2.90;;;23.20;75.20;;;;;;5005351;28;20440;-51
2023/09/17 03:03:04;;;;;;;3.20;2.70;;;23.20;75.00;;;;;;5004550;28;21002;-51
2023/09/17 03:05:53;;;;;;;3.30;2.87;;;23.20;75.00;;;;;;4989452;28;20515;-51
2023/09/17 03:08:43;;;;;;;3.00;2.77;;;23.20;75.00;;;;;;5007082;28;20674;-51
2023/09/17 03:11:30;;;;;;;3.57;2.80;;;23.20;74.90;;;;;;5000229;28;20510;-51
2023/09/17 03:14:20;;;;;;;2.73;2.50;;;23.20;74.80;;;;;;5006172;28;20467;-51
2023/09/17 03:17:07;;;;;;;3.30;3.00;;;23.20;74.80;;;;;;4996341;28;20476;-51
2023/09/17 03:19:54;;;;;;;2.70;2.50;;;23.20;74.80;;;;;;5005719;28;20988;-51
2023/09/17 03:22:41;;;;;;;2.70;2.50;;;23.20;74.70;;;;;;5007411;28;21032;-50
2023/09/17 03:25:30;;;;;;;3.50;2.83;;;23.20;74.70;;;;;;5009380;28;20479;-50
2023/09/17 03:28:17;;;;;;;3.67;2.73;;;23.20;74.70;;;;;;4997299;28;20488;-50
2023/09/17 03:31:04;;;;;;;3.57;3.27;;;23.20;74.90;;;;;;4988576;28;20432;-50
2023/09/17 03:33:51;;;;;;;3.53;3.23;;;23.20;75.00;;;;;;4995146;28;20503;-50
2023/09/17 03:36:38;;;;;;;5.57;3.33;;;23.20;75.10;;;;;;5006908;28;20547;-51
2023/09/17 03:39:26;;;;;;;3.87;3.53;;;23.20;75.10;;;;;;5007749;28;20474;-50
2023/09/17 03:42:14;;;;;;;3.63;2.93;;;23.10;74.80;;;;;;4993268;28;20483;-51
2023/09/17 03:45:01;;;;;;;3.17;2.97;;;23.20;75.00;;;;;;5009795;28;20791;-51
2023/09/17 03:47:49;;;;;;;3.30;3.00;;;23.20;74.90;;;;;;5006320;28;20475;-51
2023/09/17 03:50:39;;;;;;;3.30;2.80;;;23.10;75.00;;;;;;5000681;28;20592;-51
2023/09/17 03:53:27;;;;;;;4.10;3.73;;;23.10;74.90;;;;;;5008032;28;20904;-51
2023/09/17 03:56:14;;;;;;;3.53;3.23;;;23.10;75.00;;;;;;5007523;28;20480;-51
2023/09/17 03:59:03;;;;;;;2.70;2.50;;;23.10;74.90;;;;;;5007351;28;20483;-51
2023/09/17 04:01:50;;;;;;;4.23;3.83;;;23.10;74.80;;;;;;4997508;28;21024;-51
2023/09/17 04:04:37;;;;;;;3.53;2.90;;;23.10;74.90;;;;;;4968699;28;20830;-51
2023/09/17 04:07:24;;;;;;;7.30;3.30;;;23.10;74.80;;;;;;4970192;28;20544;-50
2023/09/17 04:10:12;;;;;;;3.40;3.10;;;23.10;75.00;;;;;;4989645;28;20596;-50
2023/09/17 04:12:59;;;;;;;3.67;3.30;;;23.10;74.90;;;;;;4970743;28;20887;-51
2023/09/17 04:15:48;;;;;;;3.50;3.20;;;23.10;74.90;;;;;;4988529;28;21014;-51
2023/09/17 04:18:35;;;;;;;3.47;3.17;;;23.10;74.90;;;;;;4987350;28;20469;-50
2023/09/17 04:21:21;;;;;;;4.10;3.50;;;23.10;74.90;;;;;;4988591;28;20475;-49
2023/09/17 04:24:12;;;;;;;3.90;3.50;;;23.10;74.90;;;;;;5009303;28;20450;-49
2023/09/17 04:26:58;;;;;;;3.77;3.47;;;23.10;74.90;;;;;;5003381;28;20929;-49
2023/09/17 04:29:45;;;;;;;3.90;3.60;;;23.00;74.70;;;;;;4997427;28;20996;-49
2023/09/17 04:32:37;;;;;;;3.30;3.00;;;23.00;74.70;;;;;;5003462;28;20542;-49
2023/09/17 04:35:25;;;;;;;4.50;2.87;;;23.10;75.00;;;;;;4986840;28;20514;-49
2023/09/17 04:38:11;;;;;;;4.90;3.73;;;23.00;74.90;;;;;;4993750;28;20492;-51
2023/09/17 04:40:58;;;;;;;5.43;3.13;;;23.00;75.00;;;;;;5006821;28;20480;-51
2023/09/17 04:43:45;;;;;;;4.23;3.40;;;23.00;75.00;;;;;;4985154;28;20464;-51
2023/09/17 04:46:31;;;;;;;4.60;4.20;;;23.00;75.10;;;;;;4987494;28;20748;-50
2023/09/17 04:49:20;;;;;;;3.90;3.60;;;23.00;75.10;;;;;;4995298;28;20864;-51
2023/09/17 04:52:07;;;;;;;3.80;3.50;;;23.00;75.10;;;;;;4991644;28;20485;-51
2023/09/17 04:54:54;;;;;;;5.97;4.93;;;23.00;74.90;;;;;;4988008;28;20472;-50
2023/09/17 04:57:41;;;;;;;3.50;3.13;;;23.00;75.00;;;;;;4993617;28;20475;-51
2023/09/17 05:00:28;;;;;;;4.27;3.90;;;23.00;74.90;;;;;;5008458;28;20519;-51
2023/09/17 05:03:15;;;;;;;4.57;4.17;;;23.00;75.10;;;;;;5008540;28;20490;-51
2023/09/17 05:06:04;;;;;;;4.47;3.50;;;23.00;75.00;;;;;;4998539;28;20987;-51
2023/09/17 05:08:51;;;;;;;3.30;3.00;;;23.00;74.90;;;;;;5000063;28;20595;-52
2023/09/17 05:11:39;;;;;;;3.70;3.20;;;23.00;75.00;;;;;;5011945;28;20460;-51
2023/09/17 05:14:26;;;;;;;5.20;3.80;;;23.00;75.00;;;;;;5006616;28;20431;-50
2023/09/17 05:17:13;;;;;;;4.30;3.90;;;23.00;75.00;;;;;;4995835;28;20473;-51
2023/09/17 05:20:00;;;;;;;3.70;3.40;;;23.00;74.90;;;;;;4963960;28;20511;-51
2023/09/17 05:22:48;;;;;;;4.13;3.73;;;23.00;74.80;;;;;;4988739;28;21910;-51
2023/09/17 05:25:35;;;;;;;4.33;3.87;;;23.00;74.90;;;;;;4987751;28;20540;-51
2023/09/17 05:28:23;;;;;;;4.23;3.50;;;23.00;74.90;;;;;;5003073;28;20479;-51
2023/09/17 05:31:10;;;;;;;3.90;3.60;;;23.00;74.90;;;;;;4990235;28;20799;-51
2023/09/17 05:33:57;;;;;;;3.77;3.47;;;23.00;74.90;;;;;;4993607;28;20798;-51
2023/09/17 05:36:44;;;;;;;4.13;3.73;;;23.00;74.90;;;;;;5000592;28;20839;-49
2023/09/17 05:39:32;;;;;;;4.60;3.00;;;23.00;74.80;;;;;;4988120;28;20448;-51
2023/09/17 05:42:20;;;;;;;3.60;3.30;;;23.00;74.80;;;;;;4987832;28;20611;-51
2023/09/17 05:45:08;;;;;;;5.13;3.43;;;23.00;75.00;;;;;;4986705;28;20422;-50
2023/09/17 05:47:55;;;;;;;3.60;3.27;;;23.00;74.90;;;;;;4986356;28;20484;-51
2023/09/17 05:50:42;;;;;;;3.70;3.40;;;23.00;74.90;;;;;;4999523;28;20519;-51
2023/09/17 05:53:30;;;;;;;3.60;3.27;;;23.00;74.90;;;;;;4995112;28;20619;-51
2023/09/17 05:56:18;;;;;;;3.20;2.90;;;23.00;74.90;;;;;;4998888;28;20577;-50
2023/09/17 05:59:06;;;;;;;4.00;3.70;;;22.90;74.80;;;;;;4990436;28;20587;-51
2023/09/17 06:01:53;;;;;;;2.63;2.43;;;22.90;74.70;;;;;;4999029;28;20596;-49
2023/09/17 06:04:39;;;;;;;3.50;3.20;;;23.00;74.80;;;;;;4985206;28;20658;-49
2023/09/17 06:07:26;;;;;;;3.83;3.33;;;22.90;74.60;;;;;;4992521;28;20480;-49
2023/09/17 06:10:13;;;;;;;4.03;3.50;;;22.90;74.80;;;;;;4996356;28;20493;-49
2023/09/17 06:13:03;;;;;;;3.83;3.17;;;22.90;74.70;;;;;;4985080;28;20616;-51
2023/09/17 06:15:50;;;;;;;3.23;2.93;;;22.90;74.70;;;;;;4976358;28;20826;-50
2023/09/17 06:18:37;;;;;;;3.33;3.13;;;22.90;74.70;;;;;;4985136;28;20462;-49
2023/09/17 06:21:24;;;;;;;2.97;2.70;;;22.90;74.70;;;;;;4979282;28;20464;-49
2023/09/17 06:24:11;;;;;;;3.13;2.90;;;22.90;74.80;;;;;;4975879;28;20858;-51
2023/09/17 06:26:58;;;;;;;3.10;2.90;;;22.90;74.80;;;;;;4970754;28;21120;-50
2023/09/17 06:29:47;;;;;;;4.07;3.40;;;22.90;74.70;;;;;;4990450;28;20993;-51
2023/09/17 06:32:33;;;;;;;3.93;3.53;;;22.90;74.80;;;;;;5003293;28;21379;-51
2023/09/17 06:35:20;;;;;;;3.37;3.07;;;22.90;74.90;;;;;;5005195;28;20460;-51
2023/09/17 06:38:07;;;;;;;3.63;3.10;;;22.90;74.90;;;;;;5002881;28;20955;-52
2023/09/17 06:40:54;;;;;;;4.13;3.30;;;22.90;74.80;;;;;;5006415;28;20448;-51
2023/09/17 06:43:41;;;;;;;3.43;3.13;;;22.90;74.80;;;;;;4997885;28;20892;-51
2023/09/17 06:46:29;;;;;;;3.20;2.87;;;22.90;74.90;;;;;;4999272;28;20508;-50
2023/09/17 06:49:16;;;;;;;3.13;2.83;;;22.90;75.00;;;;;;4987365;28;20445;-49
2023/09/17 06:52:03;;;;;;;3.20;2.90;;;22.90;74.60;;;;;;4992630;28;20479;-50
2023/09/17 06:54:50;;;;;;;3.37;2.70;;;22.90;74.90;;;;;;5010033;28;20463;-51
2023/09/17 06:57:36;;;;;;;3.60;3.30;;;22.90;76.20;;;;;;5003272;28;21115;-51
2023/09/17 07:00:26;;;;;;;4.13;2.80;;;22.90;75.10;;;;;;5009864;28;20444;-51
2023/09/17 07:03:14;;;;;;;2.87;2.60;;;22.90;74.80;;;;;;4990143;28;20480;-51
2023/09/17 07:06:00;;;;;;;3.73;2.70;;;22.90;74.70;;;;;;4987196;28;20581;-50
2023/09/17 07:08:47;;;;;;;2.40;2.20;;;22.90;74.50;;;;;;4988792;28;20472;-49
2023/09/17 07:11:33;;;;;;;2.93;2.70;;;22.90;74.20;;;;;;4993864;28;20452;-52
2023/09/17 07:14:20;;;;;;;3.40;2.90;;;22.90;74.20;;;;;;5007047;28;20468;-51
2023/09/17 07:17:07;;;;;;;3.03;2.73;;;22.90;74.00;;;;;;4992941;28;20482;-51
2023/09/17 07:19:55;;;;;;;3.57;3.27;;;22.90;74.20;;;;;;5005278;28;20538;-52
2023/09/17 07:22:42;;;;;;;3.73;3.00;;;22.90;73.90;;;;;;4990468;28;20484;-51
2023/09/17 07:25:29;;;;;;;2.73;2.50;;;22.90;73.80;;;;;;4989420;28;20819;-52
2023/09/17 07:28:16;;;;;;;2.50;2.30;;;22.90;73.70;;;;;;5006593;28;20479;-51
2023/09/17 07:31:04;;;;;;;3.30;2.87;;;22.90;73.60;;;;;;5005662;28;20440;-51
2023/09/17 07:33:51;;;;;;;3.63;3.33;;;22.90;73.60;;;;;;4986372;28;20442;-51
2023/09/17 07:36:40;;;;;;;2.73;2.53;;;22.90;73.70;;;;;;4985642;28;20464;-51
2023/09/17 07:39:26;;;;;;;3.43;3.13;;;22.90;73.90;;;;;;4989716;28;20449;-51
2023/09/17 07:42:13;;;;;;;2.60;2.40;;;22.90;73.60;;;;;;4984436;28;20469;-52
2023/09/17 07:44:59;;;;;;;3.00;2.73;;;23.00;73.50;;;;;;4975482;28;20452;-51
2023/09/17 07:47:46;;;;;;;2.50;2.30;;;22.90;73.30;;;;;;4996490;28;20468;-51
2023/09/17 07:50:33;;;;;;;2.73;2.37;;;23.00;73.30;;;;;;4991636;28;20465;-51
2023/09/17 07:53:21;;;;;;;3.20;2.90;;;23.00;73.30;;;;;;4986217;28;20472;-52
2023/09/17 07:56:08;;;;;;;2.97;2.67;;;23.00;73.20;;;;;;4984593;28;20844;-51
2023/09/17 07:58:55;;;;;;;2.90;2.70;;;23.00;73.20;;;;;;4984998;28;20469;-51
2023/09/17 08:01:41;;;;;;;2.73;2.47;;;23.00;73.10;;;;;;4986640;28;20481;-51
2023/09/17 08:04:28;;;;;;;3.00;2.70;;;23.00;73.10;;;;;;4978572;28;20503;-51
2023/09/17 08:07:16;;;;;;;2.63;2.43;;;23.00;73.20;;;;;;4985542;28;20485;-51
2023/09/17 08:10:04;;;;;;;3.50;2.50;;;23.00;73.40;;;;;;4983725;28;20452;-51
2023/09/17 08:12:51;;;;;;;3.10;2.90;;;23.00;73.50;;;;;;4985856;28;20481;-51
2023/09/17 08:15:38;;;;;;;2.63;2.43;;;23.00;73.40;;;;;;4988448;28;20425;-51
2023/09/17 08:18:24;;;;;;;3.17;2.87;;;23.00;73.50;;;;;;4988772;28;20496;-51
2023/09/17 08:21:12;;;;;;;2.50;2.30;;;23.00;73.50;;;;;;4984459;28;20993;-51
2023/09/17 08:23:58;;;;;;;3.00;2.70;;;23.00;73.50;;;;;;4987087;28;20437;-51
2023/09/17 08:26:47;;;;;;;2.83;2.60;;;23.00;73.60;;;;;;4984187;28;20861;-52
2023/09/17 08:29:34;;;;;;;2.80;2.60;;;23.00;73.30;;;;;;4984254;28;20599;-51
2023/09/17 08:32:21;;;;;;;2.73;2.50;;;23.00;73.20;;;;;;4992962;28;20473;-51
2023/09/17 08:35:08;;;;;;;2.50;2.30;;;23.00;73.10;;;;;;5003290;28;20571;-51
2023/09/17 08:37:55;;;;;;;2.73;2.50;;;23.00;73.10;;;;;;5002483;28;20479;-51
2023/09/17 08:40:42;;;;;;;3.30;2.67;;;23.00;74.30;;;;;;5003888;28;20580;-51
2023/09/17 08:43:31;;;;;;;3.27;2.97;;;23.00;73.30;;;;;;4986624;28;20477;-51
2023/09/17 08:46:19;;;;;;;2.70;2.43;;;23.00;73.40;;;;;;4985651;28;20759;-51
2023/09/17 08:49:06;;;;;;;3.20;3.00;;;23.00;73.30;;;;;;4986105;28;20823;-50
2023/09/17 08:51:56;;;;;;;2.70;2.50;;;23.00;73.40;;;;;;4987879;28;20492;-50
2023/09/17 08:54:43;;;;;;;2.70;2.50;;;23.00;73.40;;;;;;4988367;28;20596;-51
2023/09/17 08:57:34;;;;;;;3.03;2.80;;;23.10;73.40;;;;;;4986618;28;20528;-51
2023/09/17 09:00:23;;;;;;;2.37;2.17;;;23.00;74.50;;;;;;4994940;28;20467;-51
2023/09/17 09:03:14;;;;;;;3.00;2.20;;;23.00;73.30;;;;;;4986172;28;20950;-50
2023/09/17 09:06:04;;;;;;;3.37;2.80;;;23.00;73.10;;;;;;4979588;28;20977;-51
2023/09/17 09:08:52;;;;;;;3.00;2.70;;;23.00;73.30;;;;;;5010545;28;20506;-50
2023/09/17 09:11:39;;;;;;;2.60;2.00;;;23.00;73.30;;;;;;5010401;28;21016;-50
2023/09/17 09:14:26;;;;;;;2.50;2.30;;;23.00;73.20;;;;;;5009141;28;20451;-51
2023/09/17 09:17:15;;;;;;;3.40;2.80;;;23.00;73.30;;;;;;5011904;28;20881;-51
2023/09/17 09:20:03;;;;;;;3.23;2.93;;;23.00;73.30;;;;;;5009596;28;21000;-51
2023/09/17 09:22:50;;;;;;;2.43;2.23;;;23.00;73.20;;;;;;5011061;28;21124;-51
2023/09/17 09:25:37;;;;;;;2.67;2.47;;;23.00;73.20;;;;;;5006631;28;20456;-51
2023/09/17 09:28:24;;;;;;;2.87;2.03;;;23.00;73.30;;;;;;5012274;28;20460;-52
2023/09/17 09:31:11;;;;;;;2.60;2.37;;;23.00;73.20;;;;;;5008007;28;20460;-52
2023/09/17 09:34:00;;;;;;;2.90;2.40;;;23.00;73.30;;;;;;5011685;28;20451;-51
2023/09/17 09:36:47;;;;;;;3.13;2.57;;;23.00;73.20;;;;;;5002675;28;20476;-51
2023/09/17 09:39:35;;;;;;;2.63;2.30;;;23.10;73.30;;;;;;4991591;28;20437;-51
2023/09/17 09:42:25;;;;;;;2.50;2.30;;;23.00;73.20;;;;;;4989789;28;20480;-51
2023/09/17 09:45:15;;;;;;;2.77;2.57;;;23.00;73.20;;;;;;4987963;28;20997;-51
2023/09/17 09:48:01;;;;;;;2.50;2.20;;;23.00;73.10;;;;;;4989330;28;20842;-51
2023/09/17 09:50:53;;;;;;;2.70;2.30;;;23.10;73.20;;;;;;4985078;28;20464;-51
2023/09/17 09:53:40;;;;;;;3.10;2.80;;;23.00;73.10;;;;;;5007886;28;20538;-52
2023/09/17 09:56:27;;;;;;;2.50;2.30;;;23.00;73.00;;;;;;4994095;28;21051;-51
2023/09/17 09:59:15;;;;;;;2.80;2.50;;;23.00;73.10;;;;;;5003325;28;21016;-51
2023/09/17 10:02:03;;;;;;;2.83;2.63;;;23.00;73.10;;;;;;5008226;28;20892;-51
2023/09/17 10:04:50;;;;;;;3.00;2.70;;;23.00;73.10;;;;;;5005539;28;20459;-51
2023/09/17 10:07:39;;;;;;;2.90;2.70;;;23.00;73.10;;;;;;5009957;28;21076;-51
2023/09/17 10:10:26;;;;;;;2.40;2.20;;;23.00;73.20;;;;;;5011170;28;20479;-51
2023/09/17 10:13:13;;;;;;;2.57;2.37;;;23.00;73.20;;;;;;5004678;28;20900;-50
2023/09/17 10:16:04;;;;;;;2.50;2.30;;;23.00;73.10;;;;;;5005996;28;20447;-50
2023/09/17 10:18:52;;;;;;;2.50;2.30;;;23.00;73.10;;;;;;5009423;28;20941;-51
2023/09/17 10:21:40;;;;;;;2.80;2.50;;;23.00;73.20;;;;;;5010341;28;20468;-50
2023/09/17 10:24:28;;;;;;;2.90;2.70;;;23.00;73.20;;;;;;5008471;28;20453;-51
2023/09/17 10:27:18;;;;;;;2.80;2.50;;;23.00;73.10;;;;;;5006422;28;20605;-51
2023/09/17 10:30:07;;;;;;;2.20;2.00;;;23.10;73.00;;;;;;5002665;28;20428;-50
2023/09/17 10:32:55;;;;;;;2.70;2.50;;;23.00;73.00;;;;;;5009434;28;20456;-51
2023/09/17 10:35:44;;;;;;;3.07;2.83;;;23.00;72.90;;;;;;5007331;28;20472;-52
2023/09/17 10:38:34;;;;;;;2.93;2.73;;;23.00;72.90;;;;;;4981277;28;20966;-51
2023/09/17 10:41:23;;;;;;;2.80;2.47;;;23.00;73.00;;;;;;4980596;28;20532;-51
2023/09/17 10:44:13;;;;;;;3.47;2.60;;;23.00;72.90;;;;;;4985491;28;20863;-51
2023/09/17 10:47:02;;;;;;;3.83;3.10;;;23.10;73.60;;;;;;4989011;28;20496;-50
2023/09/17 10:49:49;;;;;;;2.27;2.07;;;23.10;73.30;;;;;;4974519;28;20815;-51
2023/09/17 10:52:36;;;;;;;3.00;2.80;;;23.10;73.20;;;;;;4975171;28;20592;-51
2023/09/17 10:55:27;;;;;;;3.73;3.40;;;23.10;73.60;;;;;;4979868;28;20461;-53
2023/09/17 10:58:20;;;;;;;3.50;3.20;;;23.20;73.70;;;;;;5003751;28;20503;-51
2023/09/17 11:01:10;;;;;;;3.30;3.00;;;23.10;73.40;;;;;;5012313;28;20452;-51
2023/09/17 11:04:02;;;;;;;2.97;2.67;;;23.10;73.40;;;;;;5006023;28;20448;-51
2023/09/17 11:06:51;;;;;;;3.50;3.20;;;23.10;73.40;;;;;;4999538;28;21136;-51
2023/09/17 11:09:37;;;;;;;3.50;3.00;;;23.10;73.20;;;;;;4988447;28;20469;-51
2023/09/17 11:12:24;;;;;;;3.43;3.13;;;23.10;73.20;;;;;;4987747;28;20472;-51
2023/09/17 11:15:13;;;;;;;3.03;2.80;;;23.10;73.20;;;;;;4985591;28;20437;-52
2023/09/17 11:18:01;;;;;;;3.07;2.77;;;23.10;73.10;;;;;;4988827;28;20596;-52
2023/09/17 11:21:00;;;;;;;3.43;3.13;;;23.10;73.10;;;;;;4985692;28;20939;-51
2023/09/17 11:23:47;;;;;;;2.90;2.60;;;23.10;73.10;;;;;;4989210;28;20468;-51
2023/09/17 11:26:37;;;;;;;3.03;2.73;;;23.10;73.10;;;;;;4988100;28;20453;-51
2023/09/17 11:29:38;;;;;;;2.90;2.70;;;23.10;73.00;;;;;;4985900;28;21033;-51
2023/09/17 11:32:26;;;;;;;2.43;2.27;;;23.10;72.90;;;;;;4999951;28;20456;-51
2023/09/17 11:35:15;;;;;;;2.70;2.50;;;23.10;72.80;;;;;;4984185;28;20883;-51
2023/09/17 11:38:02;;;;;;;2.83;2.47;;;23.10;72.80;;;;;;4981986;28;20471;-51
2023/09/17 11:41:08;;;;;;;3.20;2.90;;;23.10;72.90;;;;;;4988016;28;20433;-51
2023/09/17 11:43:55;;;;;;;2.60;2.40;;;23.10;72.90;;;;;;4980976;28;20490;-52
2023/09/17 11:46:42;;;;;;;3.23;2.73;;;23.10;72.90;;;;;;4987421;28;20480;-51
2023/09/17 11:49:32;;;;;;;2.90;2.60;;;23.20;73.10;;;;;;5005677;28;20593;-51
2023/09/17 11:52:21;;;;;;;3.30;3.00;;;23.20;73.00;;;;;;5005708;28;20471;-51
2023/09/17 11:55:11;;;;;;;3.20;2.90;;;23.10;72.80;;;;;;5005330;28;20559;-51
2023/09/17 11:58:14;;;;;;;2.87;2.67;;;23.20;73.00;;;;;;5005956;28;20463;-51
2023/09/17 12:01:08;;;;;;;3.33;3.03;;;23.20;73.00;;;;;;5006625;28;20447;-50
2023/09/17 12:03:55;;;;;;;2.60;2.40;;;23.20;72.90;;;;;;4987672;28;20508;-51
2023/09/17 12:06:47;;;;;;;2.80;2.60;;;23.20;72.80;;;;;;4983779;28;20473;-50
2023/09/17 12:09:48;;;;;;;2.80;2.60;;;23.20;72.80;;;;;;4988102;28;20457;-51
2023/09/17 12:12:37;;;;;;;2.90;2.70;;;23.20;72.80;;;;;;4985264;28;21028;-51
2023/09/17 12:15:24;;;;;;;2.73;2.53;;;23.20;72.80;;;;;;4983060;28;20430;-51
2023/09/17 12:18:11;;;;;;;3.33;2.73;;;23.20;72.80;;;;;;4986058;28;20477;-51
2023/09/17 12:21:02;;;;;;;2.83;2.57;;;23.20;72.80;;;;;;4984769;28;20536;-50
2023/09/17 12:23:56;;;;;;;2.93;2.73;;;23.20;72.80;;;;;;4988089;28;20461;-51
2023/09/17 12:26:54;;;;;;;3.17;2.97;;;23.20;72.70;;;;;;4987866;28;20485;-51
2023/09/17 12:29:41;;;;;;;2.93;2.73;;;23.20;72.80;;;;;;4984725;28;20452;-51
2023/09/17 12:32:31;;;;;;;3.50;3.10;;;23.20;74.00;;;;;;4989533;28;20523;-51
2023/09/17 12:35:18;;;;;;;3.13;2.90;;;23.20;72.60;;;;;;4987235;28;20481;-51
2023/09/17 12:38:07;;;;;;;3.17;2.87;;;23.20;72.60;;;;;;4991697;28;20551;-51
2023/09/17 12:40:56;;;;;;;3.33;3.03;;;23.20;72.60;;;;;;4990969;28;21001;-51
2023/09/17 12:43:42;;;;;;;2.33;2.13;;;23.20;72.60;;;;;;4986862;28;20486;-51
2023/09/17 12:46:29;;;;;;;2.27;2.07;;;23.20;72.60;;;;;;4994542;28;20463;-51
2023/09/17 12:49:16;;;;;;;2.80;2.30;;;23.20;74.00;;;;;;5005652;28;20428;-50
2023/09/17 12:52:03;;;;;;;2.73;2.53;;;23.20;72.80;;;;;;4999057;28;20507;-50
2023/09/17 12:54:53;;;;;;;2.73;2.50;;;23.30;72.70;;;;;;5009774;28;20451;-50
2023/09/17 12:57:41;;;;;;;2.60;2.40;;;23.30;72.60;;;;;;5011092;28;20539;-52
2023/09/17 13:00:28;;;;;;;2.73;2.53;;;23.30;72.60;;;;;;4992304;28;20829;-51
2023/09/17 13:03:14;;;;;;;3.00;2.77;;;23.20;73.70;;;;;;4989832;28;20472;-51
2023/09/17 13:06:01;;;;;;;3.03;2.53;;;23.30;72.50;;;;;;4986579;28;20472;-51
2023/09/17 13:08:49;;;;;;;2.83;2.63;;;23.30;72.50;;;;;;4991424;28;21524;-51
2023/09/17 13:11:36;;;;;;;4.47;2.30;;;23.30;72.50;;;;;;4984789;28;20477;-50
2023/09/17 13:14:24;;;;;;;3.00;2.70;;;23.30;72.40;;;;;;4984265;28;20588;-51
2023/09/17 13:17:11;;;;;;;3.27;2.63;;;23.30;72.40;;;;;;4988304;28;20477;-51
2023/09/17 13:19:58;;;;;;;2.20;2.00;;;23.30;72.40;;;;;;4977923;28;20472;-50
2023/09/17 13:22:47;;;;;;;2.60;2.40;;;23.30;72.40;;;;;;4990381;28;20468;-50
2023/09/17 13:25:35;;;;;;;2.83;2.63;;;23.30;72.30;;;;;;4991124;28;20456;-51
2023/09/17 13:28:22;;;;;;;2.77;2.37;;;23.30;72.30;;;;;;4994910;28;20473;-52
2023/09/17 13:31:10;;;;;;;2.37;2.17;;;23.30;72.30;;;;;;4992759;28;20838;-51
2023/09/17 13:33:57;;;;;;;3.00;2.47;;;23.30;72.30;;;;;;5001624;28;20456;-51
2023/09/17 13:36:44;;;;;;;3.00;2.80;;;23.30;72.30;;;;;;4999096;28;21122;-52
2023/09/17 13:39:31;;;;;;;2.57;2.37;;;23.30;72.30;;;;;;4988035;28;20464;-49
2023/09/17 13:42:18;;;;;;;3.13;2.83;;;23.30;72.30;;;;;;4991341;28;20491;-50
2023/09/17 13:45:06;;;;;;;3.23;2.20;;;23.30;72.20;;;;;;5003470;28;20460;-51
2023/09/17 13:47:53;;;;;;;2.57;2.37;;;23.30;72.20;;;;;;4993018;28;20524;-51
2023/09/17 13:50:40;;;;;;;2.90;2.70;;;23.30;72.20;;;;;;4987198;28;20523;-51
2023/09/17 13:53:27;;;;;;;1.97;1.80;;;23.30;72.20;;;;;;4987026;28;20470;-51
2023/09/17 13:56:14;;;;;;;2.20;2.00;;;23.30;72.10;;;;;;4985542;28;20917;-51
2023/09/17 13:59:01;;;;;;;2.40;2.20;;;23.30;72.10;;;;;;4988228;28;20468;-51
2023/09/17 14:01:48;;;;;;;2.50;2.30;;;23.40;72.20;;;;;;4992055;28;20481;-52
2023/09/17 14:04:36;;;;;;;2.37;2.17;;;23.40;72.20;;;;;;4985898;28;20478;-51
2023/09/17 14:07:23;;;;;;;2.53;2.10;;;23.40;72.10;;;;;;4991336;28;20477;-51
2023/09/17 14:10:10;;;;;;;2.87;2.40;;;23.40;72.10;;;;;;4989945;28;21093;-51
2023/09/17 14:12:56;;;;;;;2.57;2.37;;;23.40;72.10;;;;;;4989282;28;20490;-52
2023/09/17 14:15:43;;;;;;;2.60;2.30;;;23.40;72.10;;;;;;4989416;28;20449;-51
2023/09/17 14:18:30;;;;;;;2.70;2.50;;;23.40;73.40;;;;;;4990696;28;20452;-50
2023/09/17 14:21:18;;;;;;;2.63;2.43;;;23.40;72.10;;;;;;4985648;28;20592;-51
2023/09/17 14:24:05;;;;;;;2.43;2.27;;;23.40;72.10;;;;;;4991263;28;20422;-51
2023/09/17 14:26:51;;;;;;;2.50;2.30;;;23.40;72.10;;;;;;4986641;28;20488;-50
2023/09/17 14:29:40;;;;;;;2.23;2.03;;;23.40;72.10;;;;;;4991203;28;20441;-51
2023/09/17 14:32:27;;;;;;;2.40;2.20;;;23.40;72.10;;;;;;4987840;28;20945;-51
2023/09/17 14:35:13;;;;;;;2.77;2.57;;;23.50;72.20;;;;;;4983936;28;20453;-50